sensor_id;sensor_type;location;lat;lon;timestamp;temperature;humidity
9699;DHT22;10089;47.876;8.346;2023-09-19T00:00:34;14.20;99.90
9699;DHT22;10089;47.876;8.346;2023-09-19T00:03:01;14.30;99.90
9699;DHT22;10089;47.876;8.346;2023-09-19T00:05:28;14.20;99.90
9699;DHT22;10089;47.876;8.346;2023-09-19T00:07:55;14.20;99.90
9699;DHT22;10089;47.876;8.346;2023-09-19T00:10:25;14.20;99.90
9699;DHT22;10089;47.876;8.346;2023-09-19T00:12:55;14.30;99.90
9699;DHT22;10089;47.876;8.346;2023-09-19T00:15:22;14.20;99.90
9699;DHT22;10089;47.876;8.346;2023-09-19T00:17:47;14.30;99.90
9699;DHT22;10089;47.876;8.346;2023-09-19T00:20:14;14.30;99.90
9699;DHT22;10089;47.876;8.346;2023-09-19T00:22:42;14.30;99.90
9699;DHT22;10089;47.876;8.346;2023-09-19T00:25:08;14.30;99.90
9699;DHT22;10089;47.876;8.346;2023-09-19T00:27:35;14.30;99.90
9699;DHT22;10089;47.876;8.346;2023-09-19T00:30:07;14.20;99.90
9699;DHT22;10089;47.876;8.346;2023-09-19T00:32:34;14.30;99.90
9699;DHT22;10089;47.876;8.346;2023-09-19T00:35:00;14.30;99.90
9699;DHT22;10089;47.876;8.346;2023-09-19T00:37:25;14.30;99.90
9699;DHT22;10089;47.876;8.346;2023-09-19T00:39:51;14.30;99.90
9699;DHT22;10089;47.876;8.346;2023-09-19T00:42:21;14.20;99.90
9699;DHT22;10089;47.876;8.346;2023-09-19T00:44:47;14.20;99.90
9699;DHT22;10089;47.876;8.346;2023-09-19T00:47:13;14.20;99.90
9699;DHT22;10089;47.876;8.346;2023-09-19T00:49:46;14.20;99.90
9699;DHT22;10089;47.876;8.346;2023-09-19T00:52:16;14.00;99.90
9699;DHT22;10089;47.876;8.346;2023-09-19T00:54:47;14.00;99.90
9699;DHT22;10089;47.876;8.346;2023-09-19T00:57:13;13.90;99.90
9699;DHT22;10089;47.876;8.346;2023-09-19T00:59:41;14.00;99.90
9699;DHT22;10089;47.876;8.346;2023-09-19T01:02:08;14.00;99.90
9699;DHT22;10089;47.876;8.346;2023-09-19T01:04:34;13.90;99.90
9699;DHT22;10089;47.876;8.346;2023-09-19T01:07:00;13.90;99.90
9699;DHT22;10089;47.876;8.346;2023-09-19T01:09:26;13.90;99.90
9699;DHT22;10089;47.876;8.346;2023-09-19T01:11:58;13.90;99.90
9699;DHT22;10089;47.876;8.346;2023-09-19T01:14:49;13.80;99.90
9699;DHT22;10089;47.876;8.346;2023-09-19T01:17:27;14.00;99.90
9699;DHT22;10089;47.876;8.346;2023-09-19T01:20:19;13.90;99.90
9699;DHT22;10089;47.876;8.346;2023-09-19T01:22:56;13.80;99.90
9699;DHT22;10089;47.876;8.346;2023-09-19T01:30:43;13.90;99.90
9699;DHT22;10089;47.876;8.346;2023-09-19T01:33:10;13.90;99.90
9699;DHT22;10089;47.876;8.346;2023-09-19T01:35:40;14.00;99.90
9699;DHT22;10089;47.876;8.346;2023-09-19T01:38:06;13.90;99.90
9699;DHT22;10089;47.876;8.346;2023-09-19T01:40:42;13.90;99.90
9699;DHT22;10089;47.876;8.346;2023-09-19T01:43:17;13.80;99.90
9699;DHT22;10089;47.876;8.346;2023-09-19T01:46:04;13.90;99.90
9699;DHT22;10089;47.876;8.346;2023-09-19T01:48:41;13.80;99.90
9699;DHT22;10089;47.876;8.346;2023-09-19T01:51:15;13.80;99.90
9699;DHT22;10089;47.876;8.346;2023-09-19T01:53:53;13.80;99.90
9699;DHT22;10089;47.876;8.346;2023-09-19T01:56:36;13.80;99.90
9699;DHT22;10089;47.876;8.346;2023-09-19T01:59:07;13.80;99.90
9699;DHT22;10089;47.876;8.346;2023-09-19T02:01:34;13.80;99.90
9699;DHT22;10089;47.876;8.346;2023-09-19T02:04:02;13.80;99.90
9699;DHT22;10089;47.876;8.346;2023-09-19T02:06:28;13.80;99.90
9699;DHT22;10089;47.876;8.346;2023-09-19T02:08:54;13.90;99.90
9699;DHT22;10089;47.876;8.346;2023-09-19T02:11:21;13.90;99.90
9699;DHT22;10089;47.876;8.346;2023-09-19T02:13:46;13.90;99.90
9699;DHT22;10089;47.876;8.346;2023-09-19T02:16:12;13.90;99.90
9699;DHT22;10089;47.876;8.346;2023-09-19T02:18:42;14.30;99.90
9699;DHT22;10089;47.876;8.346;2023-09-19T02:21:08;13.90;99.90
9699;DHT22;10089;47.876;8.346;2023-09-19T02:23:35;13.90;99.90
9699;DHT22;10089;47.876;8.346;2023-09-19T02:26:01;13.90;99.90
9699;DHT22;10089;47.876;8.346;2023-09-19T02:28:27;13.90;99.90
9699;DHT22;10089;47.876;8.346;2023-09-19T02:30:57;13.80;99.90
9699;DHT22;10089;47.876;8.346;2023-09-19T02:33:23;13.90;99.90
9699;DHT22;10089;47.876;8.346;2023-09-19T02:35:49;13.90;99.90
9699;DHT22;10089;47.876;8.346;2023-09-19T02:38:16;13.80;99.90
9699;DHT22;10089;47.876;8.346;2023-09-19T02:40:46;13.90;99.90
9699;DHT22;10089;47.876;8.346;2023-09-19T02:43:12;13.80;99.90
9699;DHT22;10089;47.876;8.346;2023-09-19T02:45:37;13.90;99.90
9699;DHT22;10089;47.876;8.346;2023-09-19T02:48:03;13.90;99.90
9699;DHT22;10089;47.876;8.346;2023-09-19T02:50:30;13.80;99.90
9699;DHT22;10089;47.876;8.346;2023-09-19T02:52:56;13.80;99.90
9699;DHT22;10089;47.876;8.346;2023-09-19T02:55:22;13.80;99.90
9699;DHT22;10089;47.876;8.346;2023-09-19T02:57:52;13.80;99.90
9699;DHT22;10089;47.876;8.346;2023-09-19T03:00:20;13.80;99.90
9699;DHT22;10089;47.876;8.346;2023-09-19T03:02:49;13.80;99.90
9699;DHT22;10089;47.876;8.346;2023-09-19T03:05:15;13.80;99.90
9699;DHT22;10089;47.876;8.346;2023-09-19T03:07:40;13.80;99.90
9699;DHT22;10089;47.876;8.346;2023-09-19T03:10:08;13.80;99.90
9699;DHT22;10089;47.876;8.346;2023-09-19T03:12:35;13.80;99.90
9699;DHT22;10089;47.876;8.346;2023-09-19T03:15:01;13.70;99.90
9699;DHT22;10089;47.876;8.346;2023-09-19T03:17:26;13.60;99.90
9699;DHT22;10089;47.876;8.346;2023-09-19T03:19:52;13.60;99.90
9699;DHT22;10089;47.876;8.346;2023-09-19T03:22:19;13.60;99.90
9699;DHT22;10089;47.876;8.346;2023-09-19T03:24:45;13.70;99.90
9699;DHT22;10089;47.876;8.346;2023-09-19T03:27:11;13.60;99.90
9699;DHT22;10089;47.876;8.346;2023-09-19T03:29:39;13.70;99.90
9699;DHT22;10089;47.876;8.346;2023-09-19T03:32:05;13.70;99.90
9699;DHT22;10089;47.876;8.346;2023-09-19T03:34:31;13.70;99.90
9699;DHT22;10089;47.876;8.346;2023-09-19T03:36:56;13.50;99.90
9699;DHT22;10089;47.876;8.346;2023-09-19T03:39:22;13.50;99.90
9699;DHT22;10089;47.876;8.346;2023-09-19T03:41:51;13.50;99.90
9699;DHT22;10089;47.876;8.346;2023-09-19T03:44:17;13.50;99.90
9699;DHT22;10089;47.876;8.346;2023-09-19T03:46:42;13.40;99.90
9699;DHT22;10089;47.876;8.346;2023-09-19T03:49:08;13.40;99.90
9699;DHT22;10089;47.876;8.346;2023-09-19T03:51:34;13.50;99.90
9699;DHT22;10089;47.876;8.346;2023-09-19T03:54:00;13.40;99.90
9699;DHT22;10089;47.876;8.346;2023-09-19T03:56:25;13.30;99.90
9699;DHT22;10089;47.876;8.346;2023-09-19T03:58:51;13.30;99.90
9699;DHT22;10089;47.876;8.346;2023-09-19T04:01:17;13.40;99.90
9699;DHT22;10089;47.876;8.346;2023-09-19T04:03:44;13.40;99.90
9699;DHT22;10089;47.876;8.346;2023-09-19T04:06:14;13.50;99.90
9699;DHT22;10089;47.876;8.346;2023-09-19T04:08:40;13.50;99.90
9699;DHT22;10089;47.876;8.346;2023-09-19T04:11:09;13.50;99.90
9699;DHT22;10089;47.876;8.346;2023-09-19T04:13:35;13.40;99.90
9699;DHT22;10089;47.876;8.346;2023-09-19T04:16:01;13.40;99.90
9699;DHT22;10089;47.876;8.346;2023-09-19T04:18:30;13.50;99.90
9699;DHT22;10089;47.876;8.346;2023-09-19T04:21:02;13.50;99.90
9699;DHT22;10089;47.876;8.346;2023-09-19T04:23:29;13.50;99.90
9699;DHT22;10089;47.876;8.346;2023-09-19T04:25:55;13.50;99.90
9699;DHT22;10089;47.876;8.346;2023-09-19T04:28:21;13.50;99.90
9699;DHT22;10089;47.876;8.346;2023-09-19T04:30:47;13.40;99.90
9699;DHT22;10089;47.876;8.346;2023-09-19T04:33:13;13.40;99.90
9699;DHT22;10089;47.876;8.346;2023-09-19T04:35:40;13.40;99.90
9699;DHT22;10089;47.876;8.346;2023-09-19T04:38:08;13.50;99.90
9699;DHT22;10089;47.876;8.346;2023-09-19T04:40:35;13.50;99.90
9699;DHT22;10089;47.876;8.346;2023-09-19T04:43:00;13.40;99.90
9699;DHT22;10089;47.876;8.346;2023-09-19T04:45:27;13.50;99.90
9699;DHT22;10089;47.876;8.346;2023-09-19T04:47:54;13.50;99.90
9699;DHT22;10089;47.876;8.346;2023-09-19T04:50:20;13.40;99.90
9699;DHT22;10089;47.876;8.346;2023-09-19T04:52:49;13.50;99.90
9699;DHT22;10089;47.876;8.346;2023-09-19T04:55:16;13.50;99.90
9699;DHT22;10089;47.876;8.346;2023-09-19T04:57:45;13.50;99.90
9699;DHT22;10089;47.876;8.346;2023-09-19T05:00:15;13.50;99.90
9699;DHT22;10089;47.876;8.346;2023-09-19T05:02:42;13.60;99.90
9699;DHT22;10089;47.876;8.346;2023-09-19T05:05:09;13.60;99.90
9699;DHT22;10089;47.876;8.346;2023-09-19T05:07:42;13.60;99.90
9699;DHT22;10089;47.876;8.346;2023-09-19T05:10:12;13.60;99.90
9699;DHT22;10089;47.876;8.346;2023-09-19T05:12:38;13.70;99.90
9699;DHT22;10089;47.876;8.346;2023-09-19T05:15:05;13.70;99.90
9699;DHT22;10089;47.876;8.346;2023-09-19T05:17:35;13.70;99.90
9699;DHT22;10089;47.876;8.346;2023-09-19T05:20:01;13.70;99.90
9699;DHT22;10089;47.876;8.346;2023-09-19T05:22:39;13.80;99.90
9699;DHT22;10089;47.876;8.346;2023-09-19T05:25:06;13.80;99.90
9699;DHT22;10089;47.876;8.346;2023-09-19T05:27:32;13.80;99.90
9699;DHT22;10089;47.876;8.346;2023-09-19T05:29:59;13.80;99.90
9699;DHT22;10089;47.876;8.346;2023-09-19T05:32:25;13.70;99.90
9699;DHT22;10089;47.876;8.346;2023-09-19T05:34:50;13.80;99.90
9699;DHT22;10089;47.876;8.346;2023-09-19T05:37:19;13.80;99.90
9699;DHT22;10089;47.876;8.346;2023-09-19T05:39:46;13.90;99.90
9699;DHT22;10089;47.876;8.346;2023-09-19T05:42:12;13.90;99.90
9699;DHT22;10089;47.876;8.346;2023-09-19T05:44:37;13.90;99.90
9699;DHT22;10089;47.876;8.346;2023-09-19T05:47:04;13.90;99.90
9699;DHT22;10089;47.876;8.346;2023-09-19T05:49:29;13.90;99.90
9699;DHT22;10089;47.876;8.346;2023-09-19T05:51:55;14.00;99.90
9699;DHT22;10089;47.876;8.346;2023-09-19T05:54:22;14.00;99.90
9699;DHT22;10089;47.876;8.346;2023-09-19T05:56:47;13.90;99.90
9699;DHT22;10089;47.876;8.346;2023-09-19T05:59:14;14.00;99.90
9699;DHT22;10089;47.876;8.346;2023-09-19T06:01:44;14.00;99.90
9699;DHT22;10089;47.876;8.346;2023-09-19T06:04:10;14.00;99.90
9699;DHT22;10089;47.876;8.346;2023-09-19T06:06:36;14.10;99.90
9699;DHT22;10089;47.876;8.346;2023-09-19T06:09:04;14.10;99.90
9699;DHT22;10089;47.876;8.346;2023-09-19T06:11:37;14.20;99.90
9699;DHT22;10089;47.876;8.346;2023-09-19T06:14:03;14.30;99.90
9699;DHT22;10089;47.876;8.346;2023-09-19T06:16:29;14.30;99.90
9699;DHT22;10089;47.876;8.346;2023-09-19T06:18:55;14.40;99.90
9699;DHT22;10089;47.876;8.346;2023-09-19T06:21:24;14.40;99.90
9699;DHT22;10089;47.876;8.346;2023-09-19T06:23:50;14.30;90.90
9699;DHT22;10089;47.876;8.346;2023-09-19T06:26:16;14.40;34.20
9699;DHT22;10089;47.876;8.346;2023-09-19T06:28:42;14.40;55.80
9699;DHT22;10089;47.876;8.346;2023-09-19T06:31:09;14.60;54.60
9699;DHT22;10089;47.876;8.346;2023-09-19T06:33:36;14.80;53.50
9699;DHT22;10089;47.876;8.346;2023-09-19T06:36:08;14.90;13.60
9699;DHT22;10089;47.876;8.346;2023-09-19T06:38:34;14.90;1.00
9699;DHT22;10089;47.876;8.346;2023-09-19T06:41:02;14.90;1.00
9699;DHT22;10089;47.876;8.346;2023-09-19T06:43:31;14.90;1.00
9699;DHT22;10089;47.876;8.346;2023-09-19T06:45:58;14.90;1.00
9699;DHT22;10089;47.876;8.346;2023-09-19T06:48:25;14.90;1.00
9699;DHT22;10089;47.876;8.346;2023-09-19T06:50:53;15.00;1.00
9699;DHT22;10089;47.876;8.346;2023-09-19T06:53:19;15.10;1.00
9699;DHT22;10089;47.876;8.346;2023-09-19T06:55:45;15.20;1.00
9699;DHT22;10089;47.876;8.346;2023-09-19T06:58:10;15.30;1.00
9699;DHT22;10089;47.876;8.346;2023-09-19T07:00:37;15.40;1.00
9699;DHT22;10089;47.876;8.346;2023-09-19T07:03:05;15.70;1.00
9699;DHT22;10089;47.876;8.346;2023-09-19T07:05:34;15.80;1.00
9699;DHT22;10089;47.876;8.346;2023-09-19T07:08:08;15.90;99.90
9699;DHT22;10089;47.876;8.346;2023-09-19T07:10:37;16.00;99.90
9699;DHT22;10089;47.876;8.346;2023-09-19T07:13:04;16.00;99.90
9699;DHT22;10089;47.876;8.346;2023-09-19T07:15:34;15.90;99.90
9699;DHT22;10089;47.876;8.346;2023-09-19T07:18:07;15.90;99.90
9699;DHT22;10089;47.876;8.346;2023-09-19T07:20:36;16.10;1.00
9699;DHT22;10089;47.876;8.346;2023-09-19T07:23:06;16.20;99.90
9699;DHT22;10089;47.876;8.346;2023-09-19T07:25:32;16.00;99.90
9699;DHT22;10089;47.876;8.346;2023-09-19T07:27:58;16.50;1.00
9699;DHT22;10089;47.876;8.346;2023-09-19T07:30:27;16.60;99.90
9699;DHT22;10089;47.876;8.346;2023-09-19T07:32:53;16.80;1.00
9699;DHT22;10089;47.876;8.346;2023-09-19T07:35:19;16.90;1.00
9699;DHT22;10089;47.876;8.346;2023-09-19T07:37:48;16.90;99.90
9699;DHT22;10089;47.876;8.346;2023-09-19T07:40:16;17.10;1.00
9699;DHT22;10089;47.876;8.346;2023-09-19T07:42:41;17.10;1.00
9699;DHT22;10089;47.876;8.346;2023-09-19T07:45:11;17.00;25.70
9699;DHT22;10089;47.876;8.346;2023-09-19T07:47:44;17.10;99.90
9699;DHT22;10089;47.876;8.346;2023-09-19T07:50:10;16.80;1.00
9699;DHT22;10089;47.876;8.346;2023-09-19T07:52:36;17.00;99.90
9699;DHT22;10089;47.876;8.346;2023-09-19T07:55:07;16.90;99.90
9699;DHT22;10089;47.876;8.346;2023-09-19T07:57:37;16.80;1.00
9699;DHT22;10089;47.876;8.346;2023-09-19T08:00:03;16.80;1.00
9699;DHT22;10089;47.876;8.346;2023-09-19T08:02:40;17.10;99.90
9699;DHT22;10089;47.876;8.346;2023-09-19T08:05:12;17.40;99.90
9699;DHT22;10089;47.876;8.346;2023-09-19T08:07:42;18.00;99.90
9699;DHT22;10089;47.876;8.346;2023-09-19T08:10:09;18.10;99.90
9699;DHT22;10089;47.876;8.346;2023-09-19T08:12:45;18.00;20.40
9699;DHT22;10089;47.876;8.346;2023-09-19T08:15:19;17.80;1.00
9699;DHT22;10089;47.876;8.346;2023-09-19T08:17:45;17.80;99.90
9699;DHT22;10089;47.876;8.346;2023-09-19T08:20:11;17.50;1.00
9699;DHT22;10089;47.876;8.346;2023-09-19T08:22:52;17.30;1.00
9699;DHT22;10089;47.876;8.346;2023-09-19T08:25:20;17.20;1.00
9699;DHT22;10089;47.876;8.346;2023-09-19T08:27:46;17.20;99.90
9699;DHT22;10089;47.876;8.346;2023-09-19T08:30:19;17.20;99.90
9699;DHT22;10089;47.876;8.346;2023-09-19T08:32:56;17.00;1.00
9699;DHT22;10089;47.876;8.346;2023-09-19T08:35:23;16.90;99.90
9699;DHT22;10089;47.876;8.346;2023-09-19T08:37:49;16.80;1.00
9699;DHT22;10089;47.876;8.346;2023-09-19T08:40:14;16.90;99.90
9699;DHT22;10089;47.876;8.346;2023-09-19T08:42:54;16.90;1.00
9699;DHT22;10089;47.876;8.346;2023-09-19T08:45:24;17.00;1.00
9699;DHT22;10089;47.876;8.346;2023-09-19T08:48:17;17.00;99.90
9699;DHT22;10089;47.876;8.346;2023-09-19T08:50:55;17.10;99.90
9699;DHT22;10089;47.876;8.346;2023-09-19T08:56:12;16.90;1.00
9699;DHT22;10089;47.876;8.346;2023-09-19T08:58:48;16.90;1.00
9699;DHT22;10089;47.876;8.346;2023-09-19T09:01:15;16.90;1.00
9699;DHT22;10089;47.876;8.346;2023-09-19T09:03:43;16.90;1.00
9699;DHT22;10089;47.876;8.346;2023-09-19T09:06:14;16.60;99.90
9699;DHT22;10089;47.876;8.346;2023-09-19T09:08:42;17.40;99.90
9699;DHT22;10089;47.876;8.346;2023-09-19T09:11:08;17.30;1.00
9699;DHT22;10089;47.876;8.346;2023-09-19T09:13:36;17.30;99.90
9699;DHT22;10089;47.876;8.346;2023-09-19T09:16:02;17.30;42.70
9699;DHT22;10089;47.876;8.346;2023-09-19T09:18:29;17.30;99.90
9699;DHT22;10089;47.876;8.346;2023-09-19T09:20:57;17.40;99.90
9699;DHT22;10089;47.876;8.346;2023-09-19T09:23:23;17.50;1.00
9699;DHT22;10089;47.876;8.346;2023-09-19T09:25:54;17.50;99.90
9699;DHT22;10089;47.876;8.346;2023-09-19T09:28:23;17.80;1.00
9699;DHT22;10089;47.876;8.346;2023-09-19T09:30:49;18.20;1.00
9699;DHT22;10089;47.876;8.346;2023-09-19T09:33:16;18.40;1.00
9699;DHT22;10089;47.876;8.346;2023-09-19T09:35:53;18.50;1.00
9699;DHT22;10089;47.876;8.346;2023-09-19T09:38:20;19.10;99.90
9699;DHT22;10089;47.876;8.346;2023-09-19T09:40:50;19.40;1.00
9699;DHT22;10089;47.876;8.346;2023-09-19T09:43:39;19.40;67.70
9699;DHT22;10089;47.876;8.346;2023-09-19T09:46:17;19.30;1.00
9699;DHT22;10089;47.876;8.346;2023-09-19T09:51:40;19.80;50.30
9699;DHT22;10089;47.876;8.346;2023-09-19T09:54:12;19.80;1.00
9699;DHT22;10089;47.876;8.346;2023-09-19T09:57:05;19.90;12.70
9699;DHT22;10089;47.876;8.346;2023-09-19T09:59:50;19.60;1.00
9699;DHT22;10089;47.876;8.346;2023-09-19T10:04:58;19.60;99.90
9699;DHT22;10089;47.876;8.346;2023-09-19T10:07:40;20.00;1.00
9699;DHT22;10089;47.876;8.346;2023-09-19T10:10:08;19.10;1.00
9699;DHT22;10089;47.876;8.346;2023-09-19T10:12:48;19.30;1.00
9699;DHT22;10089;47.876;8.346;2023-09-19T10:15:16;19.30;1.00
9699;DHT22;10089;47.876;8.346;2023-09-19T10:17:44;19.50;1.00
9699;DHT22;10089;47.876;8.346;2023-09-19T10:20:23;19.60;99.90
9699;DHT22;10089;47.876;8.346;2023-09-19T10:23:10;19.10;99.90
9699;DHT22;10089;47.876;8.346;2023-09-19T10:25:38;19.10;99.90
9699;DHT22;10089;47.876;8.346;2023-09-19T10:28:10;19.10;99.90
9699;DHT22;10089;47.876;8.346;2023-09-19T10:30:47;19.30;99.90
9699;DHT22;10089;47.876;8.346;2023-09-19T10:33:20;19.70;99.90
9699;DHT22;10089;47.876;8.346;2023-09-19T10:35:49;19.90;99.90
9699;DHT22;10089;47.876;8.346;2023-09-19T10:38:23;20.00;1.00
9699;DHT22;10089;47.876;8.346;2023-09-19T10:40:52;19.70;1.00
9699;DHT22;10089;47.876;8.346;2023-09-19T10:43:19;19.70;1.00
9699;DHT22;10089;47.876;8.346;2023-09-19T10:45:47;19.80;1.00
9699;DHT22;10089;47.876;8.346;2023-09-19T10:48:19;19.90;1.00
9699;DHT22;10089;47.876;8.346;2023-09-19T10:51:15;19.90;1.00
9699;DHT22;10089;47.876;8.346;2023-09-19T10:53:55;20.10;1.00
9699;DHT22;10089;47.876;8.346;2023-09-19T10:56:33;20.70;1.00
9699;DHT22;10089;47.876;8.346;2023-09-19T10:59:07;20.70;1.00
9699;DHT22;10089;47.876;8.346;2023-09-19T11:01:54;20.30;1.00
9699;DHT22;10089;47.876;8.346;2023-09-19T11:04:34;20.50;1.00
9699;DHT22;10089;47.876;8.346;2023-09-19T11:07:08;21.00;1.00
9699;DHT22;10089;47.876;8.346;2023-09-19T11:10:02;20.70;1.00
9699;DHT22;10089;47.876;8.346;2023-09-19T11:26:50;21.70;1.00
9699;DHT22;10089;47.876;8.346;2023-09-19T11:29:28;21.60;1.00
9699;DHT22;10089;47.876;8.346;2023-09-19T11:31:55;21.50;1.00
9699;DHT22;10089;47.876;8.346;2023-09-19T11:39:40;22.00;1.00
9699;DHT22;10089;47.876;8.346;2023-09-19T11:42:41;22.30;1.00
9699;DHT22;10089;47.876;8.346;2023-09-19T11:48:18;21.80;1.00
9699;DHT22;10089;47.876;8.346;2023-09-19T11:50:45;20.90;1.00
9699;DHT22;10089;47.876;8.346;2023-09-19T11:53:13;21.10;1.00
9699;DHT22;10089;47.876;8.346;2023-09-19T11:55:39;20.90;1.00
9699;DHT22;10089;47.876;8.346;2023-09-19T11:58:09;21.10;1.00
9699;DHT22;10089;47.876;8.346;2023-09-19T12:00:35;21.10;1.00
9699;DHT22;10089;47.876;8.346;2023-09-19T12:03:08;21.60;99.90
9699;DHT22;10089;47.876;8.346;2023-09-19T12:05:35;21.60;1.00
9699;DHT22;10089;47.876;8.346;2023-09-19T12:08:05;21.50;1.00
9699;DHT22;10089;47.876;8.346;2023-09-19T12:10:48;21.30;1.00
9699;DHT22;10089;47.876;8.346;2023-09-19T12:13:20;21.20;1.00
9699;DHT22;10089;47.876;8.346;2023-09-19T12:15:46;21.60;1.00
9699;DHT22;10089;47.876;8.346;2023-09-19T12:18:31;21.50;99.90
9699;DHT22;10089;47.876;8.346;2023-09-19T12:20:57;21.50;99.90
9699;DHT22;10089;47.876;8.346;2023-09-19T12:23:23;21.60;99.90
9699;DHT22;10089;47.876;8.346;2023-09-19T12:25:51;21.70;99.90
9699;DHT22;10089;47.876;8.346;2023-09-19T12:28:19;21.60;99.90
9699;DHT22;10089;47.876;8.346;2023-09-19T12:30:48;21.50;99.90
9699;DHT22;10089;47.876;8.346;2023-09-19T12:33:18;21.50;99.90
9699;DHT22;10089;47.876;8.346;2023-09-19T12:35:51;21.50;99.90
9699;DHT22;10089;47.876;8.346;2023-09-19T12:38:26;21.00;99.90
9699;DHT22;10089;47.876;8.346;2023-09-19T12:40:56;21.40;1.00
9699;DHT22;10089;47.876;8.346;2023-09-19T12:43:25;21.50;1.00
9699;DHT22;10089;47.876;8.346;2023-09-19T12:45:52;21.10;1.00
9699;DHT22;10089;47.876;8.346;2023-09-19T12:51:10;21.40;1.00
9699;DHT22;10089;47.876;8.346;2023-09-19T12:53:45;21.40;1.00
9699;DHT22;10089;47.876;8.346;2023-09-19T12:56:15;21.60;1.00
9699;DHT22;10089;47.876;8.346;2023-09-19T12:58:58;21.70;1.00
9699;DHT22;10089;47.876;8.346;2023-09-19T13:01:27;21.60;1.00
9699;DHT22;10089;47.876;8.346;2023-09-19T13:06:41;21.50;1.00
9699;DHT22;10089;47.876;8.346;2023-09-19T13:09:10;21.50;1.00
9699;DHT22;10089;47.876;8.346;2023-09-19T13:11:37;21.20;1.00
9699;DHT22;10089;47.876;8.346;2023-09-19T13:14:20;21.00;1.00
9699;DHT22;10089;47.876;8.346;2023-09-19T13:17:16;21.00;1.00
9699;DHT22;10089;47.876;8.346;2023-09-19T13:19:50;20.90;1.00
9699;DHT22;10089;47.876;8.346;2023-09-19T13:22:45;20.80;1.00
9699;DHT22;10089;47.876;8.346;2023-09-19T13:25:24;21.20;1.00
9699;DHT22;10089;47.876;8.346;2023-09-19T13:27:53;20.80;1.00
9699;DHT22;10089;47.876;8.346;2023-09-19T13:30:24;20.80;1.00
9699;DHT22;10089;47.876;8.346;2023-09-19T13:33:09;20.80;1.00
9699;DHT22;10089;47.876;8.346;2023-09-19T13:35:36;20.90;1.00
9699;DHT22;10089;47.876;8.346;2023-09-19T13:38:04;20.80;1.00
9699;DHT22;10089;47.876;8.346;2023-09-19T13:40:29;20.60;1.00
9699;DHT22;10089;47.876;8.346;2023-09-19T13:42:56;20.60;1.00
9699;DHT22;10089;47.876;8.346;2023-09-19T13:45:22;20.70;1.00
9699;DHT22;10089;47.876;8.346;2023-09-19T13:47:50;20.80;1.00
9699;DHT22;10089;47.876;8.346;2023-09-19T13:50:15;20.80;1.00
9699;DHT22;10089;47.876;8.346;2023-09-19T13:52:42;20.70;1.00
9699;DHT22;10089;47.876;8.346;2023-09-19T13:55:08;20.60;1.00
9699;DHT22;10089;47.876;8.346;2023-09-19T13:57:34;20.70;1.00
9699;DHT22;10089;47.876;8.346;2023-09-19T13:59:59;20.70;1.00
9699;DHT22;10089;47.876;8.346;2023-09-19T14:02:25;20.50;1.00
9699;DHT22;10089;47.876;8.346;2023-09-19T14:04:54;20.30;1.00
9699;DHT22;10089;47.876;8.346;2023-09-19T14:07:21;20.30;1.00
9699;DHT22;10089;47.876;8.346;2023-09-19T14:09:46;20.40;1.00
9699;DHT22;10089;47.876;8.346;2023-09-19T14:12:13;20.50;1.00
9699;DHT22;10089;47.876;8.346;2023-09-19T14:14:39;20.70;1.00
9699;DHT22;10089;47.876;8.346;2023-09-19T14:17:05;20.70;1.00
9699;DHT22;10089;47.876;8.346;2023-09-19T14:19:32;20.50;1.00
9699;DHT22;10089;47.876;8.346;2023-09-19T14:21:58;20.30;1.00
9699;DHT22;10089;47.876;8.346;2023-09-19T14:24:26;20.30;1.00
9699;DHT22;10089;47.876;8.346;2023-09-19T14:26:51;20.20;1.00
9699;DHT22;10089;47.876;8.346;2023-09-19T14:29:17;20.10;1.00
9699;DHT22;10089;47.876;8.346;2023-09-19T14:31:43;20.00;1.00
9699;DHT22;10089;47.876;8.346;2023-09-19T14:34:09;19.80;1.00
9699;DHT22;10089;47.876;8.346;2023-09-19T14:36:36;19.70;14.70
9699;DHT22;10089;47.876;8.346;2023-09-19T14:39:01;19.50;99.90
9699;DHT22;10089;47.876;8.346;2023-09-19T14:41:28;19.50;99.90
9699;DHT22;10089;47.876;8.346;2023-09-19T14:43:53;19.40;99.90
9699;DHT22;10089;47.876;8.346;2023-09-19T14:46:21;19.50;75.80
9699;DHT22;10089;47.876;8.346;2023-09-19T14:48:47;19.60;82.70
9699;DHT22;10089;47.876;8.346;2023-09-19T14:51:13;19.70;99.90
9699;DHT22;10089;47.876;8.346;2023-09-19T14:53:40;19.80;1.00
9699;DHT22;10089;47.876;8.346;2023-09-19T14:56:08;19.80;1.00
9699;DHT22;10089;47.876;8.346;2023-09-19T14:58:34;19.70;99.90
9699;DHT22;10089;47.876;8.346;2023-09-19T15:01:03;19.80;99.90
9699;DHT22;10089;47.876;8.346;2023-09-19T15:03:30;19.70;49.30
9699;DHT22;10089;47.876;8.346;2023-09-19T15:06:03;19.50;99.90
9699;DHT22;10089;47.876;8.346;2023-09-19T15:08:32;19.50;99.90
9699;DHT22;10089;47.876;8.346;2023-09-19T15:11:03;19.50;99.90
9699;DHT22;10089;47.876;8.346;2023-09-19T15:13:31;19.60;99.90
9699;DHT22;10089;47.876;8.346;2023-09-19T15:16:01;19.70;99.90
9699;DHT22;10089;47.876;8.346;2023-09-19T15:18:28;19.70;1.00
9699;DHT22;10089;47.876;8.346;2023-09-19T15:21:02;19.70;1.00
9699;DHT22;10089;47.876;8.346;2023-09-19T15:23:29;19.60;1.00
9699;DHT22;10089;47.876;8.346;2023-09-19T15:25:56;19.40;1.00
9699;DHT22;10089;47.876;8.346;2023-09-19T15:28:22;19.30;99.90
9699;DHT22;10089;47.876;8.346;2023-09-19T15:31:10;19.30;1.00
9699;DHT22;10089;47.876;8.346;2023-09-19T15:33:35;19.30;99.90
9699;DHT22;10089;47.876;8.346;2023-09-19T15:38:30;19.20;99.90
9699;DHT22;10089;47.876;8.346;2023-09-19T15:40:58;19.10;73.60
9699;DHT22;10089;47.876;8.346;2023-09-19T15:43:25;19.10;99.90
9699;DHT22;10089;47.876;8.346;2023-09-19T15:45:50;19.00;99.90
9699;DHT22;10089;47.876;8.346;2023-09-19T15:48:17;18.90;99.90
9699;DHT22;10089;47.876;8.346;2023-09-19T15:50:44;18.90;99.90
9699;DHT22;10089;47.876;8.346;2023-09-19T15:53:10;18.90;1.00
9699;DHT22;10089;47.876;8.346;2023-09-19T15:55:41;18.80;1.00
9699;DHT22;10089;47.876;8.346;2023-09-19T15:58:07;18.90;1.00
9699;DHT22;10089;47.876;8.346;2023-09-19T16:00:33;18.90;1.00
9699;DHT22;10089;47.876;8.346;2023-09-19T16:03:02;18.80;1.00
9699;DHT22;10089;47.876;8.346;2023-09-19T16:05:35;18.80;1.00
9699;DHT22;10089;47.876;8.346;2023-09-19T16:08:06;18.90;1.00
9699;DHT22;10089;47.876;8.346;2023-09-19T16:10:36;18.90;1.00
9699;DHT22;10089;47.876;8.346;2023-09-19T16:13:03;18.90;1.00
9699;DHT22;10089;47.876;8.346;2023-09-19T16:15:29;18.70;1.00
9699;DHT22;10089;47.876;8.346;2023-09-19T16:17:54;18.70;1.00
9699;DHT22;10089;47.876;8.346;2023-09-19T16:20:20;18.60;1.00
9699;DHT22;10089;47.876;8.346;2023-09-19T16:22:48;18.60;1.00
9699;DHT22;10089;47.876;8.346;2023-09-19T16:25:14;18.60;1.00
9699;DHT22;10089;47.876;8.346;2023-09-19T16:27:40;18.50;1.00
9699;DHT22;10089;47.876;8.346;2023-09-19T16:30:07;18.40;1.00
9699;DHT22;10089;47.876;8.346;2023-09-19T16:32:35;18.40;1.00
9699;DHT22;10089;47.876;8.346;2023-09-19T16:35:02;18.40;1.00
9699;DHT22;10089;47.876;8.346;2023-09-19T16:37:28;18.40;1.00
9699;DHT22;10089;47.876;8.346;2023-09-19T16:39:54;18.30;1.00
9699;DHT22;10089;47.876;8.346;2023-09-19T16:42:19;18.20;99.90
9699;DHT22;10089;47.876;8.346;2023-09-19T16:44:46;18.10;99.90
9699;DHT22;10089;47.876;8.346;2023-09-19T16:47:12;18.00;99.90
9699;DHT22;10089;47.876;8.346;2023-09-19T16:49:37;18.00;99.90